createdAt,value
2022-10-18T00:02:34.656Z,9.21
2022-10-18T00:05:37.000Z,9.17
2022-10-18T00:08:44.893Z,9.15
2022-10-18T00:11:48.002Z,9.12
2022-10-18T00:14:54.253Z,9.07
2022-10-18T00:18:03.657Z,9.07
2022-10-18T00:21:18.295Z,9.04
2022-10-18T00:24:23.651Z,9.03
2022-10-18T00:27:41.367Z,9.06
2022-10-18T00:30:45.094Z,9.04
2022-10-18T00:34:08.320Z,9.02
2022-10-18T00:37:10.487Z,8.97
2022-10-18T00:40:21.310Z,8.96
2022-10-18T00:43:27.341Z,9.02
2022-10-18T00:46:59.622Z,9.03
2022-10-18T00:50:23.482Z,8.99
2022-10-18T00:57:07.720Z,8.95
2022-10-18T01:00:10.659Z,8.93
2022-10-18T01:03:13.019Z,8.90
2022-10-18T01:06:23.213Z,8.87
2022-10-18T01:09:49.062Z,8.88
2022-10-18T01:13:12.041Z,8.89
2022-10-18T01:16:33.270Z,8.86
2022-10-18T01:20:09.669Z,8.86
2022-10-18T01:23:20.111Z,8.87
2022-10-18T01:26:45.754Z,8.83
2022-10-18T01:30:20.199Z,8.78
2022-10-18T01:33:24.584Z,8.76
2022-10-18T01:36:42.731Z,8.73
2022-10-18T01:39:55.932Z,8.74
2022-10-18T01:43:01.740Z,8.69
2022-10-18T01:46:20.288Z,8.67
2022-10-18T01:49:30.651Z,8.67
2022-10-18T01:52:59.911Z,8.69
2022-10-18T01:56:34.695Z,8.81
2022-10-18T01:59:46.597Z,8.88
2022-10-18T02:03:08.792Z,8.89
2022-10-18T02:06:29.071Z,8.81
2022-10-18T02:09:39.562Z,8.77
2022-10-18T02:12:47.188Z,8.78
2022-10-18T02:15:51.521Z,8.76
2022-10-18T02:19:03.141Z,8.77
2022-10-18T02:22:23.569Z,8.74
2022-10-18T02:25:28.677Z,8.73
2022-10-18T02:29:06.853Z,8.72
2022-10-18T02:32:19.259Z,8.69
2022-10-18T02:35:43.785Z,8.76
2022-10-18T02:38:46.510Z,8.78
2022-10-18T02:41:48.910Z,8.80
2022-10-18T02:44:51.276Z,8.76
2022-10-18T02:48:11.566Z,8.82
2022-10-18T02:51:22.326Z,8.93
2022-10-18T02:54:33.943Z,8.95
2022-10-18T02:57:39.156Z,8.95
2022-10-18T03:00:53.197Z,8.93
2022-10-18T03:07:43.911Z,8.93
2022-10-18T03:10:55.190Z,8.96
2022-10-18T03:14:11.356Z,9.05
2022-10-18T03:17:13.593Z,9.00
2022-10-18T03:20:22.145Z,8.97
2022-10-18T03:23:24.789Z,8.88
2022-10-18T03:26:27.367Z,8.79
2022-10-18T03:29:32.775Z,8.72
2022-10-18T03:32:40.721Z,8.80
2022-10-18T03:35:42.968Z,8.80
2022-10-18T03:38:46.284Z,8.85
2022-10-18T03:41:50.950Z,8.86
2022-10-18T03:44:55.380Z,8.89
2022-10-18T03:47:58.158Z,8.91
2022-10-18T03:51:02.775Z,8.91
2022-10-18T03:54:06.275Z,8.89
2022-10-18T03:57:09.392Z,8.96
2022-10-18T04:00:12.371Z,8.92
2022-10-18T04:03:14.913Z,8.93
2022-10-18T04:06:18.352Z,8.91
2022-10-18T04:09:22.818Z,8.86
2022-10-18T04:12:27.487Z,8.79
2022-10-18T04:15:30.278Z,8.73
2022-10-18T04:18:32.747Z,8.68
2022-10-18T04:21:35.764Z,8.73
2022-10-18T04:24:38.315Z,8.79
2022-10-18T04:27:40.451Z,8.75
2022-10-18T04:30:43.491Z,8.69
2022-10-18T04:33:46.261Z,8.66
2022-10-18T04:36:48.960Z,8.54
2022-10-18T04:39:53.721Z,8.55
2022-10-18T04:42:58.815Z,8.45
2022-10-18T04:46:02.192Z,8.38
2022-10-18T04:49:05.869Z,8.26
2022-10-18T04:52:09.628Z,8.21
2022-10-18T04:55:12.701Z,8.16
2022-10-18T04:58:15.948Z,8.15
2022-10-18T05:01:19.104Z,8.10
2022-10-18T05:04:22.092Z,8.08
2022-10-18T05:07:24.491Z,8.06
2022-10-18T05:10:28.380Z,7.97
2022-10-18T05:13:31.583Z,7.90
2022-10-18T05:16:33.700Z,7.86
2022-10-18T05:19:42.780Z,7.83
2022-10-18T05:22:46.584Z,7.81
2022-10-18T05:25:52.439Z,7.82
2022-10-18T05:28:58.811Z,7.91
2022-10-18T05:32:02.027Z,7.87
2022-10-18T05:35:05.208Z,7.86
2022-10-18T05:38:08.079Z,7.92
2022-10-18T05:41:11.646Z,8.04
2022-10-18T05:44:15.080Z,8.09
2022-10-18T05:47:19.715Z,8.13
2022-10-18T05:50:22.285Z,8.20
2022-10-18T05:53:36.153Z,8.29
2022-10-18T05:59:47.432Z,8.46
2022-10-18T06:02:50.570Z,8.52
2022-10-18T06:05:53.628Z,8.68
2022-10-18T06:08:57.736Z,8.85
2022-10-18T06:12:00.827Z,9.01
2022-10-18T06:15:04.837Z,9.19
2022-10-18T06:18:07.822Z,9.32
2022-10-18T06:21:10.194Z,9.52
2022-10-18T06:24:15.006Z,9.64
2022-10-18T06:27:18.651Z,9.76
2022-10-18T06:30:23.278Z,9.94
2022-10-18T06:33:26.758Z,10.13
2022-10-18T06:36:30.158Z,10.28
2022-10-18T06:39:33.556Z,10.43
2022-10-18T06:42:39.308Z,10.53
2022-10-18T06:45:41.998Z,10.73
2022-10-18T06:48:44.085Z,10.84
2022-10-18T06:51:47.967Z,10.95
2022-10-18T06:54:51.485Z,11.15
2022-10-18T06:57:56.099Z,11.22
2022-10-18T07:01:00.131Z,11.31
2022-10-18T07:04:03.407Z,11.48
2022-10-18T07:07:08.444Z,11.46
2022-10-18T07:10:13.031Z,11.52
2022-10-18T07:13:33.031Z,11.64
2022-10-18T07:16:37.990Z,11.87
2022-10-18T07:19:40.690Z,11.95
2022-10-18T07:22:44.392Z,12.13
2022-10-18T07:25:47.686Z,12.31
2022-10-18T07:29:09.187Z,12.45
2022-10-18T07:32:11.993Z,12.67
2022-10-18T07:35:15.913Z,12.81
2022-10-18T07:38:23.813Z,12.86
2022-10-18T07:41:27.298Z,12.92
2022-10-18T07:44:35.219Z,13.08
2022-10-18T07:47:37.936Z,13.20
2022-10-18T07:50:44.583Z,13.36
2022-10-18T07:53:47.547Z,13.38
2022-10-18T07:56:53.322Z,13.52
2022-10-18T07:59:58.335Z,13.66
2022-10-18T08:03:01.344Z,13.77
2022-10-18T08:06:04.169Z,13.81
2022-10-18T08:09:07.218Z,13.87
2022-10-18T08:12:09.199Z,13.94
2022-10-18T08:15:12.363Z,14.01
2022-10-18T08:18:14.639Z,14.06
2022-10-18T08:21:18.737Z,14.06
2022-10-18T08:24:26.546Z,14.23
2022-10-18T08:27:29.866Z,14.37
2022-10-18T08:30:33.475Z,14.45
2022-10-18T08:33:41.511Z,14.62
2022-10-18T08:36:44.242Z,14.74
2022-10-18T08:39:46.708Z,14.75
2022-10-18T08:42:58.530Z,14.80
2022-10-18T08:46:01.705Z,14.87
2022-10-18T08:49:04.917Z,15.00
2022-10-18T08:52:30.841Z,15.09
2022-10-18T08:55:43.995Z,15.12
2022-10-18T08:58:47.354Z,15.41
2022-10-18T09:02:03.883Z,15.52
2022-10-18T09:05:25.139Z,15.60
2022-10-18T09:08:28.186Z,15.73
2022-10-18T09:11:50.001Z,15.73
2022-10-18T09:15:12.039Z,15.89
2022-10-18T09:18:50.174Z,15.88
2022-10-18T09:21:56.415Z,16.05
2022-10-18T09:25:06.264Z,16.20
2022-10-18T09:28:19.180Z,16.39
2022-10-18T09:31:28.112Z,16.42
2022-10-18T09:34:36.106Z,16.35
2022-10-18T09:37:40.400Z,16.45
2022-10-18T09:40:55.925Z,16.66
2022-10-18T09:44:01.745Z,16.60
2022-10-18T09:47:14.570Z,16.68
2022-10-18T09:50:33.851Z,16.80
2022-10-18T09:53:59.563Z,16.94
2022-10-18T09:57:10.178Z,17.07
2022-10-18T10:00:18.465Z,17.13
2022-10-18T10:03:20.478Z,17.25
2022-10-18T10:06:31.341Z,17.32
2022-10-18T10:09:41.431Z,17.43
2022-10-18T10:12:44.456Z,17.50
2022-10-18T10:15:54.443Z,17.49
2022-10-18T10:18:56.501Z,17.54
2022-10-18T10:22:05.013Z,17.70
2022-10-18T10:25:09.113Z,17.78
2022-10-18T10:28:16.179Z,17.84
2022-10-18T10:31:25.579Z,17.82
2022-10-18T10:34:31.093Z,17.93
2022-10-18T10:37:36.726Z,18.00
2022-10-18T10:40:50.506Z,18.15
2022-10-18T10:43:53.586Z,18.32
2022-10-18T10:46:56.958Z,18.33
2022-10-18T10:49:59.748Z,18.38
2022-10-18T10:53:03.379Z,18.43
2022-10-18T10:56:15.969Z,18.44
2022-10-18T10:59:20.700Z,18.51
2022-10-18T11:02:23.353Z,18.63
2022-10-18T11:05:28.089Z,18.68
2022-10-18T11:08:41.657Z,18.72
2022-10-18T11:11:50.040Z,18.71
2022-10-18T11:15:12.539Z,18.87
2022-10-18T11:18:21.423Z,18.86
2022-10-18T11:21:28.796Z,18.88
2022-10-18T11:24:30.947Z,19.02
2022-10-18T11:27:37.044Z,19.06
2022-10-18T11:31:06.771Z,19.15
2022-10-18T11:34:28.040Z,19.17
2022-10-18T11:37:41.263Z,19.01
2022-10-18T11:40:50.339Z,19.01
2022-10-18T11:44:02.793Z,19.15
2022-10-18T11:47:24.991Z,19.24
2022-10-18T11:50:47.756Z,19.40
2022-10-18T11:54:09.884Z,19.44
2022-10-18T11:57:12.643Z,19.39
2022-10-18T12:00:23.709Z,19.49
2022-10-18T12:03:35.842Z,19.58
2022-10-18T12:06:40.879Z,19.47
2022-10-18T12:12:54.000Z,19.63
2022-10-18T12:15:56.300Z,19.78
2022-10-18T12:19:00.412Z,19.87
2022-10-18T12:22:23.855Z,19.93
2022-10-18T12:25:27.998Z,19.99
2022-10-18T12:28:34.296Z,19.92
2022-10-18T12:31:40.888Z,19.99
2022-10-18T12:34:47.594Z,20.07
2022-10-18T12:37:56.884Z,20.02
2022-10-18T12:40:59.349Z,20.18
2022-10-18T12:44:05.615Z,20.34
2022-10-18T12:47:25.203Z,20.32
2022-10-18T12:50:28.671Z,20.14
2022-10-18T12:53:35.657Z,20.11
2022-10-18T12:56:43.321Z,20.24
2022-10-18T12:59:46.444Z,20.24
2022-10-18T13:03:09.816Z,20.22
2022-10-18T13:06:13.546Z,20.23
2022-10-18T13:09:18.845Z,20.12
2022-10-18T13:12:22.980Z,20.09
2022-10-18T13:15:27.597Z,20.15
2022-10-18T13:18:45.750Z,20.14
2022-10-18T13:22:07.286Z,20.12
2022-10-18T13:25:26.443Z,20.12
2022-10-18T13:28:36.419Z,20.24
2022-10-18T13:31:45.825Z,20.18
2022-10-18T13:34:49.133Z,20.16
2022-10-18T13:37:59.072Z,20.11
2022-10-18T13:41:08.857Z,20.10
2022-10-18T13:44:52.337Z,20.05
2022-10-18T13:47:54.363Z,19.97
2022-10-18T13:51:07.682Z,19.88
2022-10-18T13:54:23.383Z,19.96
2022-10-18T13:57:51.845Z,19.93
2022-10-18T14:01:03.396Z,19.83
2022-10-18T14:04:15.306Z,19.79
2022-10-18T14:07:20.266Z,19.78
2022-10-18T14:10:43.298Z,19.74
2022-10-18T14:13:49.295Z,19.70
2022-10-18T14:17:00.157Z,19.65
2022-10-18T14:20:15.746Z,19.50
2022-10-18T14:23:20.576Z,19.43
2022-10-18T14:26:26.380Z,19.46
2022-10-18T14:29:28.980Z,19.34
2022-10-18T14:32:36.216Z,19.24
2022-10-18T14:35:41.497Z,19.15
2022-10-18T14:39:02.065Z,19.05
2022-10-18T14:42:04.502Z,18.88
2022-10-18T14:45:18.058Z,18.78
2022-10-18T14:48:25.361Z,18.59
2022-10-18T14:51:30.907Z,18.47
2022-10-18T14:54:36.889Z,18.36
2022-10-18T14:57:39.658Z,18.30
2022-10-18T15:00:43.971Z,18.16
2022-10-18T15:03:50.688Z,17.99
2022-10-18T15:06:54.859Z,17.87
2022-10-18T15:09:59.076Z,17.74
2022-10-18T15:13:09.634Z,17.58
2022-10-18T15:16:18.174Z,17.38
2022-10-18T15:19:23.667Z,17.22
2022-10-18T15:22:32.393Z,17.10
2022-10-18T15:25:36.451Z,16.99
2022-10-18T15:28:58.685Z,16.85
2022-10-18T15:32:15.506Z,16.72
2022-10-18T15:35:24.957Z,16.54
2022-10-18T15:38:32.488Z,16.38
2022-10-18T15:41:40.446Z,16.23
2022-10-18T15:44:52.539Z,16.04
2022-10-18T15:48:07.045Z,15.87
2022-10-18T15:51:20.638Z,15.71
2022-10-18T15:54:36.365Z,15.46
2022-10-18T15:57:39.646Z,15.22
2022-10-18T16:00:43.842Z,15.05
2022-10-18T16:03:47.667Z,14.93
2022-10-18T16:06:50.803Z,14.75
2022-10-18T16:09:54.101Z,14.57
2022-10-18T16:12:57.782Z,14.43
2022-10-18T16:16:00.555Z,14.29
2022-10-18T16:19:03.407Z,14.12
2022-10-18T16:22:07.957Z,13.96
2022-10-18T16:25:10.865Z,13.85
2022-10-18T16:28:14.325Z,13.80
2022-10-18T16:31:21.088Z,13.63
2022-10-18T16:34:25.732Z,13.53
2022-10-18T16:37:29.092Z,13.43
2022-10-18T16:40:31.698Z,13.37
2022-10-18T16:43:35.606Z,13.26
2022-10-18T16:46:39.342Z,13.20
2022-10-18T16:49:42.110Z,13.13
2022-10-18T16:52:46.226Z,13.02
2022-10-18T16:55:51.676Z,12.97
2022-10-18T16:58:54.410Z,12.86
2022-10-18T17:01:57.813Z,12.78
2022-10-18T17:05:01.273Z,12.70
2022-10-18T17:08:05.066Z,12.57
2022-10-18T17:11:07.363Z,12.53
2022-10-18T17:14:10.827Z,12.47
2022-10-18T17:17:14.240Z,12.42
2022-10-18T17:20:20.924Z,12.36
2022-10-18T17:23:24.207Z,12.27
2022-10-18T17:26:29.748Z,12.20
2022-10-18T17:29:33.667Z,12.16
2022-10-18T17:32:36.040Z,12.09
2022-10-18T17:35:43.329Z,12.02
2022-10-18T17:38:49.717Z,12.03
2022-10-18T17:41:53.469Z,11.96
2022-10-18T17:44:57.796Z,11.90
2022-10-18T17:48:01.020Z,11.81
2022-10-18T17:51:07.613Z,11.84
2022-10-18T17:54:10.129Z,11.80
2022-10-18T17:57:13.359Z,11.72
2022-10-18T18:00:16.858Z,11.68
2022-10-18T18:03:19.381Z,11.61
2022-10-18T18:06:31.988Z,11.53
2022-10-18T18:09:36.488Z,11.53
2022-10-18T18:12:42.409Z,11.47
2022-10-18T18:15:44.778Z,11.43
2022-10-18T18:18:47.504Z,11.43
2022-10-18T18:21:54.058Z,11.35
2022-10-18T18:24:56.328Z,11.32
2022-10-18T18:28:00.652Z,11.32
2022-10-18T18:31:06.777Z,11.20
2022-10-18T18:34:09.973Z,11.11
2022-10-18T18:37:12.902Z,11.12
2022-10-18T18:40:17.178Z,11.04
2022-10-18T18:43:23.158Z,11.00
2022-10-18T18:46:28.629Z,11.00
2022-10-18T18:49:31.832Z,11.03
2022-10-18T18:52:35.216Z,10.95
2022-10-18T18:55:42.598Z,10.85
2022-10-18T18:58:46.491Z,10.91
2022-10-18T19:01:50.076Z,10.84
2022-10-18T19:04:54.538Z,10.77
2022-10-18T19:07:57.350Z,10.77
2022-10-18T19:10:59.891Z,10.70
2022-10-18T19:14:03.194Z,10.67
2022-10-18T19:17:07.821Z,10.63
2022-10-18T19:20:17.165Z,10.60
2022-10-18T19:23:20.421Z,10.54
2022-10-18T19:26:24.841Z,10.52
2022-10-18T19:29:28.791Z,10.51
2022-10-18T19:32:31.989Z,10.46
2022-10-18T19:35:36.265Z,10.46
2022-10-18T19:38:40.928Z,10.39
2022-10-18T19:41:44.124Z,10.32
2022-10-18T19:44:47.115Z,10.27
2022-10-18T19:47:50.315Z,10.28
2022-10-18T19:50:53.465Z,10.42
2022-10-18T19:53:57.639Z,10.36
2022-10-18T19:57:00.501Z,10.21
2022-10-18T20:00:06.722Z,10.18
2022-10-18T20:03:11.572Z,10.08
2022-10-18T20:06:14.926Z,10.10
2022-10-18T20:09:20.646Z,10.02
2022-10-18T20:12:25.823Z,10.05
2022-10-18T20:15:28.981Z,9.99
2022-10-18T20:18:31.810Z,9.91
2022-10-18T20:21:37.731Z,9.92
2022-10-18T20:24:40.452Z,9.95
2022-10-18T20:27:43.368Z,10.01
2022-10-18T20:30:45.961Z,9.83
2022-10-18T20:33:48.814Z,9.87
2022-10-18T20:36:52.272Z,9.82
2022-10-18T20:39:54.798Z,9.76
2022-10-18T20:43:03.748Z,9.72
2022-10-18T20:46:06.919Z,9.74
2022-10-18T20:49:12.098Z,9.68
2022-10-18T20:52:15.607Z,9.67
2022-10-18T20:55:19.309Z,9.61
2022-10-18T20:58:22.296Z,9.58
2022-10-18T21:01:26.917Z,9.59
2022-10-18T21:04:30.831Z,9.59
2022-10-18T21:07:34.497Z,9.61
2022-10-18T21:10:41.407Z,9.63
2022-10-18T21:13:46.045Z,9.62
2022-10-18T21:16:49.237Z,9.55
2022-10-18T21:19:52.399Z,9.46
2022-10-18T21:22:55.096Z,9.49
2022-10-18T21:25:58.620Z,9.43
2022-10-18T21:29:01.538Z,9.41
2022-10-18T21:32:04.405Z,9.39
2022-10-18T21:35:06.861Z,9.29
2022-10-18T21:38:11.900Z,9.24
2022-10-18T21:41:15.918Z,9.37
2022-10-18T21:44:19.211Z,9.33
2022-10-18T21:47:21.997Z,9.25
2022-10-18T21:50:25.494Z,9.23
2022-10-18T21:53:29.113Z,9.22
2022-10-18T21:56:33.127Z,9.35
2022-10-18T21:59:36.424Z,9.27
2022-10-18T22:02:41.545Z,9.25
2022-10-18T22:05:45.172Z,9.36
2022-10-18T22:08:56.141Z,9.44
2022-10-18T22:11:59.445Z,9.40
2022-10-18T22:15:04.364Z,9.39
2022-10-18T22:18:07.450Z,9.44
2022-10-18T22:21:11.339Z,9.58
2022-10-18T22:24:14.449Z,9.62
2022-10-18T22:27:17.131Z,9.68
2022-10-18T22:30:19.729Z,9.69
2022-10-18T22:33:21.685Z,9.84
2022-10-18T22:36:25.853Z,9.95
2022-10-18T22:39:28.599Z,9.86
2022-10-18T22:42:31.449Z,9.89
2022-10-18T22:45:35.024Z,9.96
2022-10-18T22:48:39.481Z,9.97
2022-10-18T22:51:42.129Z,10.03
2022-10-18T22:54:45.210Z,10.21
2022-10-18T22:57:48.782Z,10.22
2022-10-18T23:00:54.528Z,10.14
2022-10-18T23:03:58.644Z,10.20
2022-10-18T23:07:01.407Z,10.17
2022-10-18T23:10:04.709Z,10.21
2022-10-18T23:13:09.849Z,10.21
2022-10-18T23:16:19.391Z,10.24
2022-10-18T23:19:22.963Z,10.29
2022-10-18T23:22:27.123Z,10.43
2022-10-18T23:25:31.242Z,10.41
2022-10-18T23:28:36.098Z,10.40
2022-10-18T23:31:40.312Z,10.36
2022-10-18T23:34:44.163Z,10.34
2022-10-18T23:37:46.769Z,10.36
2022-10-18T23:40:51.905Z,10.46
2022-10-18T23:43:54.655Z,10.41
2022-10-18T23:46:59.209Z,10.33
2022-10-18T23:50:02.402Z,10.30
2022-10-18T23:53:04.764Z,10.30
2022-10-18T23:56:08.592Z,10.21
2022-10-18T23:59:11.879Z,10.24
